Fountain Green, Utah
Current Conditions -  °F | °C
As of 12:52 PM on Wednesday 17 Dec 2014 (Local Time) from KPVU Reporting Station
Scattered Clouds Scattered Clouds  
Wind Chill: 39°   Ceiling: Unl
Heat Index: 39°   Visibility: 15mi
Dew Point: 30°   Wind: 3mph
Humidity: 70%   Direction: NA
Pressure: 29.98"   Gusts: NA
Location:  39.63°N, 111.64°W
Report Text: KPVU 171952Z VRB03KT 15SM FEW075 SCT120 04/M01 A2998
Loading
Personal Weather Stations






























Interactive Weather Map New forecast layout! Learn more

10-Day Weather Forecast

Advertisements
Track Severe Weather on mobile